KSEZ

Details ICAO KSEZ (SDX)
Name Sedona
Region United States
Timezone America/Phoenix (UTC-7.0)
Plans Departing 53
Arriving 108
Stats Elevation 4,827 ft / 1,471 m (AMSL)
Location 34.848607° -111.788482°
Runways 1
Magnetic Variation 10.417° E
Sunrise 2018-05-24 12:19:34 UTC / 2018-05-24 05:19:34 Local
Sunset 2018-05-25 02:31:21 UTC / 2018-05-24 19:31:21 Local
Advertisement - Login to hide

Runways

ID Width Length Bearing (true) Bearing (mag) Surface Threshold Offset Overrun Length
03 100 ft / 30 m 5,130 ft / 1,564 m 45.63° 35.21° Asphalt 0 ft / 0 m 0 ft / 0 m
21 100 ft / 30 m 5,130 ft / 1,564 m 225.64° 215.22° Asphalt 0 ft / 0 m 0 ft / 0 m

Map

Weather


0- 5 10 15 20 25 30 35+ Temperature / ° C

Clouds and Precipitation
Forecast for 2018-05-24 18:00 UTC. Updated an hour ago

Ground ~20,000 ft ~40,000 ft Winds

METAR

KSEZ 241755Z AUTO 19008KT 10SM CLR 28/M03 A3018 RMK AO2

TAF

TAF KSEZ 241720Z 2418/2518 17008G15KT P6SM SKC FM250300 VRB06KT P6SM SKC FM250900 06006KT P6SM SKC

Frequencies

Recorded 118.52 MHz AWOS 2
Approach 124.50 MHz ALBUQUERQUE CNTR
Unicom 123.00 MHz CTAF/UNICOM
Warning: Do not use this data for real-world aviation or navigation. No guarantee of current accuracy is given.